Time;durP1;ratioP1;P1;durP2;ratioP2;P2;SDS_P1;SDS_P2;PMS_P1;PMS_P2;Temp;Humidity;BMP_temperature;BMP_pressure;BME280_temperature;BME280_humidity;BME280_pressure;Samples;Min_cycle;Max_cycle;Signal;HPM_P1;HPM_P2
2024/01/17 00:00:54;;;;;;;6.75;6.07;;;17.70;50.60;;;;;;5047709;28;20182;-71
2024/01/17 00:03:20;;;;;;;7.00;6.30;;;17.70;50.50;;;;;;5038352;28;20182;-72
2024/01/17 00:05:47;;;;;;;6.70;6.03;;;17.70;50.50;;;;;;5067707;28;20329;-71
2024/01/17 00:08:13;;;;;;;6.68;6.00;;;17.70;50.60;;;;;;5039382;28;20686;-71
2024/01/17 00:10:39;;;;;;;7.15;5.93;;;17.70;50.50;;;;;;5054333;28;20280;-70
2024/01/17 00:13:04;;;;;;;7.25;6.55;;;17.70;50.50;;;;;;5056786;28;20273;-70
2024/01/17 00:15:30;;;;;;;6.63;5.93;;;17.70;50.50;;;;;;5054172;28;20650;-71
2024/01/17 00:17:56;;;;;;;6.78;6.07;;;17.70;50.50;;;;;;5037369;28;20218;-70
2024/01/17 00:20:22;;;;;;;6.50;5.70;;;17.70;50.50;;;;;;5037180;28;20194;-71
2024/01/17 00:22:49;;;;;;;6.55;5.85;;;17.70;50.50;;;;;;5043683;28;20246;-71
2024/01/17 00:25:15;;;;;;;6.03;5.43;;;17.70;50.50;;;;;;5052030;28;20278;-71
2024/01/17 00:27:41;;;;;;;6.32;5.72;;;17.70;50.50;;;;;;5053537;28;20194;-71
2024/01/17 00:30:07;;;;;;;6.07;5.47;;;17.70;50.50;;;;;;5039523;28;20201;-71
2024/01/17 00:32:34;;;;;;;6.65;5.78;;;17.70;50.50;;;;;;5061508;28;20228;-71
2024/01/17 00:35:08;;;;;;;6.13;5.53;;;17.70;50.50;;;;;;5053744;28;20194;-70
2024/01/17 00:37:34;;;;;;;6.40;5.80;;;17.70;50.40;;;;;;5034304;28;20214;-71
2024/01/17 00:40:00;;;;;;;6.28;5.68;;;17.70;50.60;;;;;;5033907;28;20661;-71
2024/01/17 00:42:26;;;;;;;5.65;5.13;;;17.70;50.50;;;;;;5036154;28;20186;-71
2024/01/17 00:44:53;;;;;;;6.57;5.80;;;17.70;50.50;;;;;;5051022;28;20209;-71
2024/01/17 00:47:20;;;;;;;5.95;5.35;;;17.80;50.60;;;;;;5042340;28;20589;-71
2024/01/17 00:49:46;;;;;;;6.15;5.53;;;17.80;50.60;;;;;;5041103;28;20202;-71
2024/01/17 00:52:12;;;;;;;6.05;5.32;;;17.70;50.50;;;;;;5040633;28;20182;-71
2024/01/17 00:54:38;;;;;;;5.57;4.97;;;17.70;50.50;;;;;;5035425;28;20265;-71
2024/01/17 00:57:04;;;;;;;5.88;5.30;;;17.70;50.60;;;;;;5050720;28;20320;-71
2024/01/17 00:59:30;;;;;;;5.95;5.03;;;17.70;50.60;;;;;;5044909;28;20224;-71
2024/01/17 01:01:55;;;;;;;5.50;5.00;;;17.70;50.60;;;;;;5037508;28;20190;-71
2024/01/17 01:04:21;;;;;;;5.78;5.18;;;17.70;50.50;;;;;;5052073;28;20214;-72
2024/01/17 01:06:47;;;;;;;5.80;5.10;;;17.70;50.60;;;;;;5047271;28;20206;-71
2024/01/17 01:09:13;;;;;;;5.90;5.30;;;17.70;50.60;;;;;;5035118;28;20191;-71
2024/01/17 01:11:39;;;;;;;5.50;4.97;;;17.70;50.50;;;;;;5034579;28;20739;-71
2024/01/17 01:14:04;;;;;;;5.43;4.85;;;17.70;50.60;;;;;;5051698;28;20734;-70
2024/01/17 01:16:30;;;;;;;5.28;4.78;;;17.70;50.60;;;;;;5047824;28;20226;-71
2024/01/17 01:18:56;;;;;;;5.40;4.78;;;17.70;50.60;;;;;;5048626;28;20250;-70
2024/01/17 01:21:22;;;;;;;5.20;4.70;;;17.70;50.60;;;;;;5059457;28;20269;-71
2024/01/17 01:23:47;;;;;;;5.20;4.70;;;17.80;50.60;;;;;;5050899;28;20186;-71
2024/01/17 01:26:14;;;;;;;5.20;4.70;;;17.80;50.60;;;;;;5050098;28;20298;-70
2024/01/17 01:28:40;;;;;;;5.03;4.55;;;17.70;50.60;;;;;;5064399;28;20245;-70
2024/01/17 01:31:06;;;;;;;5.13;4.63;;;17.70;50.60;;;;;;5049117;28;20182;-71
2024/01/17 01:33:33;;;;;;;5.25;4.75;;;17.80;50.60;;;;;;5054693;28;20255;-71
2024/01/17 01:35:59;;;;;;;5.85;5.28;;;17.70;51.20;;;;;;5037217;28;20217;-70
2024/01/17 01:38:25;;;;;;;4.78;4.38;;;17.80;50.70;;;;;;5034054;28;20206;-70
2024/01/17 01:40:50;;;;;;;5.95;4.55;;;17.70;50.60;;;;;;5041487;28;20201;-71
2024/01/17 01:43:22;;;;;;;5.03;4.47;;;17.80;50.70;;;;;;5058938;28;20266;-71
2024/01/17 01:46:20;;;;;;;4.30;3.90;;;17.80;50.70;;;;;;5046784;28;20682;-71
2024/01/17 01:48:49;;;;;;;4.25;3.85;;;17.70;50.60;;;;;;5058557;28;20225;-71
2024/01/17 01:51:15;;;;;;;4.30;3.90;;;17.80;50.70;;;;;;5059877;28;20247;-70
2024/01/17 01:53:52;;;;;;;4.55;4.15;;;17.80;50.80;;;;;;5041915;28;20187;-71
2024/01/17 01:56:22;;;;;;;4.72;4.30;;;17.80;50.70;;;;;;5053129;28;20210;-70
2024/01/17 01:58:51;;;;;;;4.72;4.32;;;17.80;50.70;;;;;;5037404;28;20206;-72
2024/01/17 02:01:18;;;;;;;4.63;4.13;;;17.80;50.70;;;;;;5051160;28;20183;-71
2024/01/17 02:03:46;;;;;;;4.78;4.30;;;17.80;50.70;;;;;;5053527;28;20182;-71
2024/01/17 02:06:14;;;;;;;5.05;4.45;;;17.80;50.70;;;;;;5047270;28;20340;-71
2024/01/17 02:08:40;;;;;;;4.60;4.20;;;17.80;50.80;;;;;;5073675;28;20201;-71
2024/01/17 02:11:06;;;;;;;4.63;4.22;;;17.80;50.80;;;;;;5073526;28;20192;-71
2024/01/17 02:13:33;;;;;;;4.45;4.03;;;17.80;50.90;;;;;;5049445;28;20270;-71
2024/01/17 02:16:00;;;;;;;4.68;4.22;;;17.80;50.90;;;;;;5049772;28;20217;-71
2024/01/17 02:18:26;;;;;;;4.78;4.35;;;17.80;50.80;;;;;;5073353;28;20205;-71
2024/01/17 02:20:52;;;;;;;4.53;4.13;;;17.80;50.90;;;;;;5056846;28;20205;-71
2024/01/17 02:23:26;;;;;;;4.93;4.40;;;17.80;50.90;;;;;;5056157;28;20303;-71
2024/01/17 02:25:54;;;;;;;4.43;4.03;;;17.80;51.00;;;;;;5056123;28;20269;-70
2024/01/17 02:28:21;;;;;;;4.38;3.97;;;17.80;50.90;;;;;;5046322;28;20198;-71
2024/01/17 02:30:47;;;;;;;3.90;3.50;;;17.80;50.90;;;;;;5044326;28;20635;-71
2024/01/17 02:33:16;;;;;;;4.05;3.65;;;17.80;50.90;;;;;;5053008;28;20205;-71
2024/01/17 02:35:46;;;;;;;4.28;3.88;;;17.80;50.90;;;;;;5073199;28;20577;-72
2024/01/17 02:38:11;;;;;;;4.25;3.85;;;17.80;51.00;;;;;;5054915;28;20218;-71
2024/01/17 02:40:37;;;;;;;4.40;4.00;;;17.80;50.90;;;;;;5066561;28;20277;-71
2024/01/17 02:43:04;;;;;;;3.97;3.63;;;17.80;51.00;;;;;;5030072;28;20222;-71
2024/01/17 02:45:31;;;;;;;4.43;4.03;;;17.80;51.00;;;;;;5056491;28;20289;-71
2024/01/17 02:47:57;;;;;;;4.25;3.85;;;17.80;51.00;;;;;;5054894;28;20186;-72
2024/01/17 02:50:24;;;;;;;4.47;4.07;;;17.80;51.00;;;;;;5088003;28;20187;-71
2024/01/17 02:52:52;;;;;;;4.40;4.00;;;17.80;51.00;;;;;;5056050;28;20236;-71
2024/01/17 02:55:19;;;;;;;3.75;3.40;;;17.80;51.00;;;;;;5053766;28;20197;-71
2024/01/17 02:57:45;;;;;;;3.67;3.38;;;17.80;51.00;;;;;;5065369;28;20214;-71
2024/01/17 03:00:12;;;;;;;3.88;3.58;;;17.80;51.10;;;;;;5071810;28;20201;-71
2024/01/17 03:02:38;;;;;;;4.10;3.70;;;17.80;51.00;;;;;;5062108;28;20708;-71
2024/01/17 03:05:05;;;;;;;4.18;3.78;;;17.80;51.10;;;;;;5042790;28;20197;-71
2024/01/17 03:07:32;;;;;;;4.25;3.85;;;17.80;51.00;;;;;;5053868;28;20220;-71
2024/01/17 03:09:58;;;;;;;3.60;3.30;;;17.80;51.10;;;;;;5072302;28;20215;-72
2024/01/17 03:12:24;;;;;;;3.97;3.58;;;17.80;51.10;;;;;;5053679;28;20189;-71
2024/01/17 03:14:50;;;;;;;4.22;3.67;;;17.80;51.10;;;;;;5070567;28;20189;-72
2024/01/17 03:17:17;;;;;;;4.15;3.75;;;17.80;51.10;;;;;;5069437;28;20275;-71
2024/01/17 03:19:44;;;;;;;4.05;3.65;;;17.80;51.10;;;;;;5053210;28;20181;-70
2024/01/17 03:22:10;;;;;;;3.85;3.55;;;17.80;51.10;;;;;;5069702;28;20181;-71
2024/01/17 03:24:39;;;;;;;4.10;3.70;;;17.80;51.10;;;;;;5087025;28;20544;-71
2024/01/17 03:27:05;;;;;;;4.00;3.67;;;17.80;51.10;;;;;;5083694;28;20205;-70
2024/01/17 03:29:31;;;;;;;3.92;3.53;;;17.80;51.10;;;;;;5053620;28;20266;-71
2024/01/17 03:31:57;;;;;;;3.80;3.50;;;17.80;51.10;;;;;;5053351;28;20190;-71
2024/01/17 03:34:23;;;;;;;3.92;3.50;;;17.80;51.10;;;;;;5068533;28;20194;-71
2024/01/17 03:36:49;;;;;;;3.75;3.45;;;17.80;51.10;;;;;;5049549;28;20296;-71
2024/01/17 03:39:15;;;;;;;4.15;3.75;;;17.80;51.10;;;;;;5045833;28;20222;-70
2024/01/17 03:41:40;;;;;;;3.70;3.40;;;17.80;51.10;;;;;;5035078;28;20198;-71
2024/01/17 03:44:06;;;;;;;3.85;3.33;;;17.80;51.10;;;;;;5049125;28;20201;-71
2024/01/17 03:46:32;;;;;;;3.40;3.10;;;17.80;51.10;;;;;;5068550;28;20210;-71
2024/01/17 03:48:59;;;;;;;3.40;3.10;;;17.80;51.10;;;;;;5050288;28;20276;-71
2024/01/17 03:51:26;;;;;;;3.70;3.38;;;17.80;51.10;;;;;;5067897;28;20248;-71
2024/01/17 03:53:52;;;;;;;3.60;3.30;;;17.80;51.10;;;;;;5065234;28;20236;-71
2024/01/17 03:56:18;;;;;;;3.42;3.13;;;17.80;51.10;;;;;;5041849;28;20293;-71
2024/01/17 03:58:44;;;;;;;3.17;2.95;;;17.80;51.20;;;;;;5051513;28;20304;-71
2024/01/17 04:01:11;;;;;;;3.70;3.40;;;17.80;51.20;;;;;;5051797;28;20181;-71
2024/01/17 04:03:37;;;;;;;3.17;2.88;;;17.80;51.20;;;;;;5044640;28;20181;-71
2024/01/17 04:06:04;;;;;;;3.40;3.10;;;17.80;51.20;;;;;;5067695;28;20715;-72
2024/01/17 04:08:30;;;;;;;3.50;3.20;;;17.90;51.30;;;;;;5066749;28;20658;-71
2024/01/17 04:10:55;;;;;;;3.70;3.40;;;17.80;51.20;;;;;;5067879;28;20231;-71
2024/01/17 04:13:21;;;;;;;3.40;3.10;;;17.90;51.30;;;;;;5050868;28;20348;-72
2024/01/17 04:15:47;;;;;;;3.30;3.00;;;17.80;51.20;;;;;;5047906;28;20294;-72
2024/01/17 04:18:16;;;;;;;3.15;2.85;;;17.90;51.30;;;;;;5068640;28;20291;-70
2024/01/17 04:20:43;;;;;;;2.70;2.50;;;17.80;51.30;;;;;;5050940;28;20221;-71
2024/01/17 04:23:09;;;;;;;3.53;3.20;;;17.90;51.30;;;;;;5070323;28;20184;-71
2024/01/17 04:25:35;;;;;;;3.15;2.85;;;17.80;51.30;;;;;;5068006;28;20198;-72
2024/01/17 04:28:06;;;;;;;2.90;2.58;;;17.90;51.40;;;;;;5050966;28;20227;-72
2024/01/17 04:30:32;;;;;;;3.67;2.80;;;17.90;51.30;;;;;;5069833;28;20198;-71
2024/01/17 04:32:58;;;;;;;3.30;3.00;;;17.90;51.30;;;;;;5042258;28;20194;-71
2024/01/17 04:35:24;;;;;;;2.97;2.78;;;17.90;51.30;;;;;;5066154;28;20198;-72
2024/01/17 04:37:50;;;;;;;2.70;2.50;;;17.90;51.40;;;;;;5052302;28;20210;-72
2024/01/17 04:40:15;;;;;;;2.80;2.40;;;17.90;51.40;;;;;;5049909;28;20660;-71
2024/01/17 04:42:42;;;;;;;2.80;2.58;;;17.90;51.40;;;;;;5060518;28;20184;-72
2024/01/17 04:45:09;;;;;;;2.72;2.53;;;17.90;51.40;;;;;;5066425;28;20592;-72
2024/01/17 04:47:34;;;;;;;2.20;2.00;;;17.90;51.40;;;;;;5048572;28;20214;-71
2024/01/17 04:50:00;;;;;;;2.58;2.38;;;17.90;51.50;;;;;;5066202;28;20204;-71
2024/01/17 04:52:26;;;;;;;2.97;2.67;;;17.90;51.50;;;;;;5047233;28;20277;-71
2024/01/17 04:54:52;;;;;;;2.80;2.60;;;17.90;51.40;;;;;;5082884;28;20228;-71
2024/01/17 04:57:17;;;;;;;2.67;2.47;;;17.90;51.40;;;;;;5047004;28;20655;-71
2024/01/17 04:59:43;;;;;;;2.50;2.30;;;17.90;51.50;;;;;;5065714;28;20189;-71
2024/01/17 05:02:09;;;;;;;2.40;2.20;;;17.90;51.50;;;;;;5067136;28;20182;-71
2024/01/17 05:04:35;;;;;;;2.60;2.40;;;17.90;51.50;;;;;;5048612;28;20689;-71
2024/01/17 05:07:01;;;;;;;2.40;2.20;;;17.90;51.50;;;;;;5045676;28;20209;-72
2024/01/17 05:09:28;;;;;;;2.47;2.28;;;17.90;51.50;;;;;;5063333;28;20202;-71
2024/01/17 05:11:56;;;;;;;2.20;2.00;;;17.90;51.50;;;;;;5066746;28;20213;-72
2024/01/17 05:14:22;;;;;;;2.55;2.35;;;17.90;51.50;;;;;;5054718;28;20256;-72
2024/01/17 05:16:48;;;;;;;3.20;2.90;;;17.90;51.50;;;;;;5051691;28;20246;-72
2024/01/17 05:19:14;;;;;;;2.58;2.38;;;17.90;51.50;;;;;;5047775;28;20207;-72
2024/01/17 05:21:39;;;;;;;2.63;2.42;;;17.90;51.50;;;;;;5050901;28;20191;-71
2024/01/17 05:24:05;;;;;;;2.53;2.15;;;17.90;51.50;;;;;;5049888;28;20179;-72
2024/01/17 05:26:31;;;;;;;2.47;2.28;;;17.90;51.50;;;;;;5042252;28;20244;-72
2024/01/17 05:28:57;;;;;;;2.72;2.50;;;17.90;51.60;;;;;;5038817;28;20226;-71
2024/01/17 05:31:23;;;;;;;2.35;2.15;;;17.90;51.60;;;;;;5035975;28;20201;-71
2024/01/17 05:33:48;;;;;;;2.55;2.35;;;17.90;51.60;;;;;;5063931;28;20185;-71
2024/01/17 05:36:14;;;;;;;2.50;2.30;;;17.90;51.60;;;;;;5062430;28;20225;-71
2024/01/17 05:38:40;;;;;;;2.90;2.70;;;17.90;51.50;;;;;;5063490;28;20214;-71
2024/01/17 05:41:06;;;;;;;2.30;2.10;;;17.90;51.60;;;;;;5046849;28;20205;-71
2024/01/17 05:43:32;;;;;;;2.22;2.05;;;18.00;51.60;;;;;;5039632;28;20214;-71
2024/01/17 05:45:58;;;;;;;2.28;2.08;;;17.90;51.60;;;;;;5041780;28;20708;-71
2024/01/17 05:48:25;;;;;;;2.25;2.05;;;18.00;51.70;;;;;;5032320;28;20665;-70
2024/01/17 05:50:52;;;;;;;2.05;1.88;;;17.90;51.60;;;;;;5024971;28;20261;-70
2024/01/17 05:53:19;;;;;;;2.22;2.03;;;17.90;51.60;;;;;;5037059;28;20205;-69
2024/01/17 05:55:45;;;;;;;2.47;2.28;;;17.90;51.60;;;;;;5046324;28;20209;-72
2024/01/17 05:58:10;;;;;;;2.60;2.40;;;18.00;52.20;;;;;;5045893;28;20210;-72
2024/01/17 06:00:37;;;;;;;2.60;2.40;;;18.00;51.70;;;;;;5051028;28;20194;-72
2024/01/17 06:03:06;;;;;;;2.38;2.10;;;17.90;51.70;;;;;;5045997;28;20186;-72
2024/01/17 06:05:32;;;;;;;2.50;2.30;;;17.90;51.70;;;;;;5064969;28;20209;-71
2024/01/17 06:07:58;;;;;;;2.15;1.98;;;17.90;51.80;;;;;;5046296;28;20189;-72
2024/01/17 06:10:26;;;;;;;2.25;2.05;;;17.90;51.80;;;;;;5039939;28;20192;-71
2024/01/17 06:12:52;;;;;;;2.25;2.05;;;17.90;51.80;;;;;;5059375;28;20271;-72
2024/01/17 06:15:18;;;;;;;2.58;2.10;;;17.90;51.80;;;;;;5060179;28;20218;-72
2024/01/17 06:17:44;;;;;;;2.10;2.00;;;17.90;51.80;;;;;;5049078;28;20253;-72
2024/01/17 06:20:11;;;;;;;2.10;2.00;;;17.90;51.80;;;;;;5040667;28;20189;-71
2024/01/17 06:22:38;;;;;;;2.15;2.00;;;17.90;51.80;;;;;;5031683;28;20190;-71
2024/01/17 06:25:08;;;;;;;2.20;1.90;;;18.00;51.90;;;;;;5030414;28;20195;-71
2024/01/17 06:27:34;;;;;;;2.13;1.92;;;17.90;51.80;;;;;;5041224;28;20209;-72
2024/01/17 06:30:00;;;;;;;2.10;1.90;;;17.90;51.80;;;;;;5038970;28;20274;-71
2024/01/17 06:32:26;;;;;;;2.47;2.10;;;17.90;51.80;;;;;;5053251;28;20269;-71
2024/01/17 06:34:52;;;;;;;1.80;1.70;;;17.90;51.80;;;;;;5047162;28;20195;-71
2024/01/17 06:37:18;;;;;;;1.80;1.70;;;17.90;51.80;;;;;;5032082;28;20292;-71
2024/01/17 06:39:44;;;;;;;2.00;1.90;;;17.90;51.80;;;;;;5039440;28;20202;-71
2024/01/17 06:42:10;;;;;;;2.08;1.90;;;17.90;51.80;;;;;;5062534;28;20265;-71
2024/01/17 06:44:36;;;;;;;2.00;1.90;;;17.90;51.80;;;;;;5048279;28;20201;-71
2024/01/17 06:47:03;;;;;;;1.92;1.83;;;17.90;51.80;;;;;;5045175;28;20205;-71
2024/01/17 06:49:29;;;;;;;1.92;1.83;;;18.00;51.80;;;;;;5053527;28;20186;-71
2024/01/17 06:51:56;;;;;;;2.28;2.08;;;18.00;51.90;;;;;;5044139;28;20193;-71
2024/01/17 06:54:22;;;;;;;2.00;1.80;;;18.00;51.80;;;;;;5086480;28;20202;-71
2024/01/17 06:56:49;;;;;;;1.80;1.70;;;18.00;51.80;;;;;;5058392;28;20249;-71
2024/01/17 06:59:16;;;;;;;2.08;1.98;;;18.00;51.90;;;;;;5058267;28;20205;-71
2024/01/17 07:01:42;;;;;;;1.80;1.70;;;18.00;51.90;;;;;;5064226;28;20266;-71
2024/01/17 07:04:08;;;;;;;1.73;1.63;;;18.00;51.90;;;;;;5064576;28;20253;-71
2024/01/17 07:06:34;;;;;;;2.10;1.90;;;18.00;51.90;;;;;;5081226;28;20285;-71
2024/01/17 07:09:00;;;;;;;1.90;1.80;;;18.00;51.90;;;;;;5062109;28;20201;-71
2024/01/17 07:11:26;;;;;;;2.10;1.85;;;18.00;51.90;;;;;;5052135;28;20190;-71
2024/01/17 07:13:52;;;;;;;1.80;1.70;;;18.00;52.00;;;;;;5046461;28;20196;-71
2024/01/17 07:16:18;;;;;;;1.75;1.65;;;18.00;52.00;;;;;;5049292;28;20213;-71
2024/01/17 07:18:44;;;;;;;1.70;1.60;;;18.00;52.00;;;;;;5048207;28;20211;-71
2024/01/17 07:21:10;;;;;;;1.88;1.77;;;18.00;52.00;;;;;;5066816;28;20182;-70
2024/01/17 07:23:38;;;;;;;2.20;2.00;;;18.10;52.00;;;;;;5081462;28;20177;-71
2024/01/17 07:26:04;;;;;;;1.88;1.70;;;18.10;52.00;;;;;;5046885;28;20245;-71
2024/01/17 07:28:30;;;;;;;1.83;1.70;;;18.10;52.70;;;;;;5047889;28;20218;-71
2024/01/17 07:30:56;;;;;;;2.08;1.90;;;18.00;52.10;;;;;;5068563;28;20190;-71
2024/01/17 07:33:22;;;;;;;1.83;1.73;;;18.00;52.00;;;;;;5061721;28;20268;-71
2024/01/17 07:35:52;;;;;;;2.25;2.05;;;18.00;52.00;;;;;;5049466;28;20206;-71
2024/01/17 07:38:18;;;;;;;1.80;1.70;;;18.10;52.10;;;;;;5051820;28;20210;-71
2024/01/17 07:40:43;;;;;;;1.88;1.77;;;18.10;52.10;;;;;;5058954;28;20186;-71
2024/01/17 07:43:09;;;;;;;1.55;1.45;;;18.00;52.10;;;;;;5057912;28;20220;-71
2024/01/17 07:45:36;;;;;;;1.73;1.63;;;18.00;52.10;;;;;;5067911;28;20236;-71
2024/01/17 07:48:02;;;;;;;2.03;1.92;;;18.00;52.10;;;;;;5054223;28;20202;-71
2024/01/17 07:50:28;;;;;;;2.17;1.83;;;18.10;52.30;;;;;;5048218;28;20246;-71
2024/01/17 07:52:54;;;;;;;1.65;1.55;;;18.10;52.30;;;;;;5041251;28;20217;-71
2024/01/17 07:55:19;;;;;;;1.60;1.50;;;18.10;52.30;;;;;;5059855;28;20178;-71
2024/01/17 07:57:45;;;;;;;1.45;1.35;;;18.10;52.30;;;;;;5043881;28;20240;-71
2024/01/17 08:00:11;;;;;;;1.60;1.50;;;18.10;52.30;;;;;;5044364;28;20183;-71
2024/01/17 08:02:41;;;;;;;2.25;1.50;;;18.10;52.30;;;;;;5047521;28;20182;-71
2024/01/17 08:05:07;;;;;;;3.17;1.73;;;18.10;52.30;;;;;;5061995;28;20231;-71
2024/01/17 08:07:33;;;;;;;1.95;1.73;;;18.10;52.40;;;;;;5041665;28;20195;-71
2024/01/17 08:09:59;;;;;;;2.13;1.30;;;18.10;52.40;;;;;;5044893;28;20254;-71
2024/01/17 08:12:25;;;;;;;1.90;1.80;;;18.10;52.40;;;;;;5041449;28;20194;-71
2024/01/17 08:14:50;;;;;;;1.70;1.60;;;18.10;52.40;;;;;;5043207;28;20187;-71
2024/01/17 08:17:16;;;;;;;1.67;1.58;;;18.10;52.40;;;;;;5060667;28;20212;-71
2024/01/17 08:19:42;;;;;;;1.85;1.33;;;18.10;52.40;;;;;;5051507;28;20251;-70
2024/01/17 08:22:09;;;;;;;1.85;1.45;;;18.10;52.40;;;;;;5061438;28;20208;-71
2024/01/17 08:24:36;;;;;;;1.50;1.40;;;18.10;52.50;;;;;;5058462;28;20186;-71
2024/01/17 08:27:03;;;;;;;1.70;1.60;;;18.10;52.40;;;;;;5054057;28;20610;-71
2024/01/17 08:29:29;;;;;;;1.50;1.40;;;18.10;52.50;;;;;;5048482;28;20198;-71
2024/01/17 08:31:55;;;;;;;2.00;1.80;;;18.10;52.50;;;;;;5056014;28;20186;-71
2024/01/17 08:34:21;;;;;;;1.60;1.50;;;18.10;52.60;;;;;;5057802;28;20204;-71
2024/01/17 08:36:47;;;;;;;1.00;1.00;;;18.10;52.60;;;;;;5046304;28;20214;-71
2024/01/17 08:39:15;;;;;;;1.40;1.30;;;18.10;52.60;;;;;;5052675;28;20209;-70
2024/01/17 08:41:45;;;;;;;1.50;1.40;;;18.20;52.70;;;;;;5050581;28;20193;-71
2024/01/17 08:44:12;;;;;;;1.13;1.10;;;18.10;52.60;;;;;;5058411;28;20221;-71
2024/01/17 08:46:43;;;;;;;1.40;1.30;;;18.10;52.70;;;;;;5041768;28;20303;-71
2024/01/17 08:49:09;;;;;;;2.05;1.42;;;18.10;52.70;;;;;;5054123;28;20209;-71
2024/01/17 08:51:35;;;;;;;1.60;1.50;;;18.10;52.70;;;;;;5050406;28;20189;-71
2024/01/17 08:54:00;;;;;;;1.60;1.50;;;18.20;52.80;;;;;;5058863;28;20560;-70
2024/01/17 08:56:26;;;;;;;1.60;1.50;;;18.10;52.70;;;;;;5048198;28;20258;-70
2024/01/17 08:58:52;;;;;;;2.00;1.58;;;18.10;52.70;;;;;;5074445;28;20296;-71
2024/01/17 09:01:18;;;;;;;1.77;1.67;;;18.20;52.80;;;;;;5056276;28;20189;-71
2024/01/17 09:03:43;;;;;;;1.75;1.65;;;18.10;52.80;;;;;;5058513;28;20187;-71
2024/01/17 09:06:09;;;;;;;2.03;1.83;;;18.10;52.80;;;;;;5041404;28;20197;-72
2024/01/17 09:08:36;;;;;;;2.17;1.50;;;18.20;52.90;;;;;;5038811;28;20194;-71
2024/01/17 09:11:02;;;;;;;1.92;1.77;;;18.10;52.80;;;;;;5052744;28;20186;-71
2024/01/17 09:13:28;;;;;;;2.10;1.73;;;18.10;52.80;;;;;;5049411;28;20685;-71
2024/01/17 09:15:53;;;;;;;1.77;1.67;;;18.20;52.90;;;;;;5060218;28;20210;-71
2024/01/17 09:18:21;;;;;;;1.88;1.77;;;18.20;52.90;;;;;;5056145;28;20692;-71
2024/01/17 09:20:49;;;;;;;1.58;1.48;;;18.20;52.80;;;;;;5051890;28;20237;-71
2024/01/17 09:23:15;;;;;;;1.80;1.63;;;18.20;52.90;;;;;;5032967;28;20209;-71
2024/01/17 09:25:41;;;;;;;2.05;1.80;;;18.20;52.90;;;;;;5051511;28;20199;-72
2024/01/17 09:28:09;;;;;;;1.90;1.80;;;18.20;53.00;;;;;;5052000;28;20243;-72
2024/01/17 09:30:35;;;;;;;1.83;1.73;;;18.20;52.90;;;;;;5048501;28;20603;-71
2024/01/17 09:33:00;;;;;;;1.90;1.50;;;18.20;53.00;;;;;;5045899;28;20236;-71
2024/01/17 09:35:27;;;;;;;1.67;1.58;;;18.20;52.90;;;;;;5054324;28;20186;-71
2024/01/17 09:37:52;;;;;;;1.88;1.77;;;18.20;52.90;;;;;;5072590;28;20233;-72
2024/01/17 09:40:21;;;;;;;2.00;1.90;;;18.20;53.00;;;;;;5038830;28;20182;-72
2024/01/17 09:42:48;;;;;;;1.67;1.58;;;18.20;53.00;;;;;;5068478;28;20195;-72
2024/01/17 09:45:17;;;;;;;1.65;1.55;;;18.20;53.00;;;;;;5074396;28;20197;-71
2024/01/17 09:47:45;;;;;;;1.67;1.58;;;18.20;53.00;;;;;;5054471;28;20249;-72
2024/01/17 09:50:11;;;;;;;1.77;1.63;;;18.20;53.00;;;;;;5052110;28;20257;-72
2024/01/17 09:52:41;;;;;;;2.05;1.65;;;18.20;53.00;;;;;;5049527;28;20266;-72
2024/01/17 09:55:08;;;;;;;1.65;1.55;;;18.20;53.00;;;;;;5053835;28;20188;-72
2024/01/17 09:57:48;;;;;;;1.63;1.52;;;18.20;53.00;;;;;;5067466;28;20202;-72
2024/01/17 10:00:14;;;;;;;1.73;1.50;;;18.20;53.00;;;;;;5053880;28;20185;-72
2024/01/17 10:02:42;;;;;;;1.50;1.40;;;18.20;53.00;;;;;;5047342;28;20183;-71
2024/01/17 10:05:11;;;;;;;1.63;1.52;;;18.20;53.00;;;;;;5035556;28;20196;-72
2024/01/17 10:07:38;;;;;;;1.50;1.40;;;18.20;53.00;;;;;;5034968;28;20570;-72
2024/01/17 10:10:05;;;;;;;1.52;1.20;;;18.20;53.00;;;;;;5055554;28;20221;-72
2024/01/17 10:12:31;;;;;;;1.60;1.50;;;18.20;53.00;;;;;;5063201;28;20179;-71
2024/01/17 10:14:56;;;;;;;1.50;1.40;;;18.20;53.00;;;;;;5055884;28;20183;-71
2024/01/17 10:17:22;;;;;;;1.45;1.35;;;18.20;53.00;;;;;;5040969;28;20229;-71
2024/01/17 10:19:48;;;;;;;1.42;1.33;;;18.20;53.00;;;;;;5058060;28;20218;-71
2024/01/17 10:22:14;;;;;;;1.73;1.30;;;18.20;53.10;;;;;;5058803;28;20221;-72
2024/01/17 10:24:40;;;;;;;1.48;1.38;;;18.20;53.00;;;;;;5036412;28;20210;-71
2024/01/17 10:27:06;;;;;;;1.48;1.38;;;18.20;53.00;;;;;;5057131;28;20199;-72
2024/01/17 10:29:37;;;;;;;1.50;1.40;;;18.20;53.00;;;;;;5056197;28;20194;-72
2024/01/17 10:32:03;;;;;;;1.50;1.40;;;18.20;53.10;;;;;;5058330;28;20183;-72
2024/01/17 10:34:30;;;;;;;1.73;1.30;;;18.20;53.00;;;;;;5064848;28;20670;-71
2024/01/17 10:36:56;;;;;;;1.35;1.25;;;18.20;53.00;;;;;;5035407;28;20230;-71
2024/01/17 10:39:25;;;;;;;1.55;1.45;;;18.30;53.10;;;;;;5040279;28;20214;-72
2024/01/17 10:41:54;;;;;;;1.60;1.50;;;18.30;53.10;;;;;;5065695;28;20198;-71
2024/01/17 10:44:25;;;;;;;1.58;1.48;;;18.20;53.10;;;;;;5057343;28;20193;-71
2024/01/17 10:46:52;;;;;;;1.42;1.33;;;18.30;53.10;;;;;;5056573;28;20246;-71
2024/01/17 10:49:23;;;;;;;1.50;1.40;;;18.30;53.10;;;;;;5058224;28;20204;-72
2024/01/17 10:52:05;;;;;;;1.20;1.10;;;18.30;53.20;;;;;;5035635;28;20191;-71
2024/01/17 10:54:46;;;;;;;1.25;1.13;;;18.30;53.20;;;;;;5052036;28;20277;-71
2024/01/17 10:57:14;;;;;;;1.65;1.55;;;18.20;53.10;;;;;;5055390;28;20224;-71
2024/01/17 10:59:49;;;;;;;1.48;1.38;;;18.30;53.20;;;;;;5068902;28;20225;-71
2024/01/17 11:02:23;;;;;;;1.67;1.55;;;18.30;53.20;;;;;;5057579;28;20188;-71
2024/01/17 11:04:58;;;;;;;1.92;1.20;;;18.30;53.20;;;;;;5061213;28;20189;-71
2024/01/17 11:07:25;;;;;;;1.65;1.55;;;18.30;53.30;;;;;;5038501;28;20202;-70
2024/01/17 11:09:53;;;;;;;1.60;1.50;;;18.30;53.30;;;;;;5054858;28;20190;-72
2024/01/17 11:12:20;;;;;;;1.60;1.50;;;18.30;53.30;;;;;;5036962;28;20177;-72
2024/01/17 11:14:48;;;;;;;1.42;1.33;;;18.30;53.20;;;;;;5055947;28;20197;-71
2024/01/17 11:17:16;;;;;;;1.17;1.10;;;18.30;53.30;;;;;;5055423;28;20221;-71
2024/01/17 11:19:44;;;;;;;1.60;1.50;;;18.30;53.30;;;;;;5037592;28;20213;-71
2024/01/17 11:22:16;;;;;;;1.35;1.25;;;18.30;53.30;;;;;;5045485;28;20182;-71
2024/01/17 11:25:02;;;;;;;1.02;1.02;;;18.30;53.30;;;;;;5051638;28;20186;-71
2024/01/17 11:27:49;;;;;;;1.23;1.08;;;18.30;53.30;;;;;;5051053;28;20203;-71
2024/01/17 11:30:35;;;;;;;1.23;1.13;;;18.30;53.90;;;;;;5054274;28;20190;-71
2024/01/17 11:33:11;;;;;;;1.45;1.35;;;18.30;53.40;;;;;;5054533;28;20186;-71
2024/01/17 11:35:42;;;;;;;1.50;1.25;;;18.30;53.30;;;;;;5068469;28;20182;-71
2024/01/17 11:38:30;;;;;;;1.30;1.20;;;18.30;53.30;;;;;;5054216;28;20207;-71
2024/01/17 11:41:06;;;;;;;1.30;1.20;;;18.30;53.30;;;;;;5051674;28;20183;-71
2024/01/17 11:43:39;;;;;;;1.17;1.08;;;18.30;53.30;;;;;;5046796;28;20198;-71
2024/01/17 11:46:09;;;;;;;1.23;1.13;;;18.30;53.30;;;;;;5054141;28;20232;-70
2024/01/17 11:48:38;;;;;;;1.17;1.17;;;18.30;53.40;;;;;;5042779;28;20281;-71
2024/01/17 11:51:16;;;;;;;1.10;1.05;;;18.30;53.40;;;;;;5044373;28;20190;-71
2024/01/17 11:53:46;;;;;;;1.20;1.20;;;18.30;53.40;;;;;;5032649;28;20197;-71
2024/01/17 11:56:13;;;;;;;1.20;1.10;;;18.30;53.40;;;;;;5035396;28;20207;-71
2024/01/17 11:58:46;;;;;;;1.33;1.23;;;18.30;53.40;;;;;;5036214;28;20202;-71
2024/01/17 12:01:40;;;;;;;0.90;0.90;;;18.30;53.40;;;;;;5051564;28;20194;-71
2024/01/17 12:04:18;;;;;;;1.20;1.10;;;18.30;53.40;;;;;;5034156;28;20239;-71
2024/01/17 12:06:51;;;;;;;1.30;1.20;;;18.30;53.50;;;;;;5042963;28;20213;-71
2024/01/17 12:09:18;;;;;;;1.13;1.00;;;18.30;53.50;;;;;;5058497;28;20220;-71
2024/01/17 12:11:48;;;;;;;1.00;1.00;;;18.30;53.40;;;;;;5049004;28;20316;-71
2024/01/17 12:14:17;;;;;;;1.15;1.10;;;18.30;53.40;;;;;;5049526;28;20202;-71
2024/01/17 12:16:48;;;;;;;0.95;0.95;;;18.30;53.40;;;;;;5068149;28;20702;-71
2024/01/17 12:19:14;;;;;;;1.45;1.10;;;18.30;53.40;;;;;;5053248;28;20219;-71
2024/01/17 12:21:41;;;;;;;1.65;1.10;;;18.30;53.50;;;;;;5053508;28;20254;-71
2024/01/17 12:24:14;;;;;;;1.10;1.10;;;18.30;53.50;;;;;;5051645;28;20673;-71
2024/01/17 12:26:42;;;;;;;1.25;1.17;;;18.30;53.40;;;;;;5065595;28;20206;-71
2024/01/17 12:29:09;;;;;;;1.30;1.20;;;18.30;53.40;;;;;;5044746;28;20266;-71
2024/01/17 12:31:36;;;;;;;1.10;1.00;;;18.30;53.40;;;;;;5039979;28;20198;-71
2024/01/17 12:34:04;;;;;;;1.30;1.20;;;18.30;53.40;;;;;;5046855;28;20569;-71
2024/01/17 12:36:35;;;;;;;1.17;1.10;;;18.40;53.50;;;;;;5030477;28;20306;-71
2024/01/17 12:39:08;;;;;;;1.00;1.00;;;18.30;53.50;;;;;;5034993;28;20219;-71
2024/01/17 12:41:36;;;;;;;1.10;1.00;;;18.30;53.50;;;;;;5036440;28;20269;-71
2024/01/17 12:44:04;;;;;;;1.00;1.00;;;18.30;53.50;;;;;;5046818;28;20202;-71
2024/01/17 12:46:32;;;;;;;1.20;1.10;;;18.30;53.50;;;;;;5039325;28;20210;-71
2024/01/17 12:48:59;;;;;;;1.30;1.20;;;18.30;53.50;;;;;;5050876;28;20248;-71